createdAt,value
2024-01-15T00:00:19.239Z,95.41
2024-01-15T00:02:46.107Z,95.56
2024-01-15T00:05:12.858Z,95.31
2024-01-15T00:07:39.590Z,95.82
2024-01-15T00:10:07.130Z,95.94
2024-01-15T00:12:34.050Z,95.59
2024-01-15T00:15:00.910Z,95.92
2024-01-15T00:17:28.458Z,95.78
2024-01-15T00:19:55.378Z,95.59
2024-01-15T00:22:22.177Z,95.45
2024-01-15T00:24:48.961Z,95.49
2024-01-15T00:27:15.696Z,95.17
2024-01-15T00:29:42.773Z,94.96
2024-01-15T00:32:09.562Z,94.52
2024-01-15T00:34:36.421Z,94.97
2024-01-15T00:37:04.125Z,94.39
2024-01-15T00:39:30.869Z,93.98
2024-01-15T00:41:57.646Z,94.48
2024-01-15T00:44:24.615Z,94.09
2024-01-15T00:46:51.503Z,94.67
2024-01-15T00:49:18.415Z,94.56
2024-01-15T00:51:45.418Z,93.33
2024-01-15T00:54:12.272Z,93.25
2024-01-15T00:56:39.052Z,93.61
2024-01-15T00:59:05.867Z,93.15
2024-01-15T01:01:33.334Z,92.75
2024-01-15T01:04:00.242Z,92.65
2024-01-15T01:06:27.130Z,93.77
2024-01-15T01:08:53.856Z,93.80
2024-01-15T01:11:20.577Z,94.02
2024-01-15T01:13:47.266Z,94.49
2024-01-15T01:16:13.955Z,94.42
2024-01-15T01:18:40.885Z,94.27
2024-01-15T01:21:07.910Z,94.69
2024-01-15T01:23:34.693Z,94.61
2024-01-15T01:26:01.406Z,94.76
2024-01-15T01:28:28.985Z,95.13
2024-01-15T01:30:55.771Z,95.98
2024-01-15T01:33:22.715Z,96.62
2024-01-15T01:35:49.693Z,96.83
2024-01-15T01:38:16.835Z,97.73
2024-01-15T01:40:43.563Z,98.02
2024-01-15T01:43:10.801Z,98.04
2024-01-15T01:45:37.927Z,98.17
2024-01-15T01:48:05.572Z,98.31
2024-01-15T01:50:33.278Z,98.16
2024-01-15T01:53:01.135Z,97.98
2024-01-15T01:55:29.106Z,97.88
2024-01-15T01:57:56.437Z,97.99
2024-01-15T02:00:23.772Z,97.97
2024-01-15T02:02:50.740Z,98.07
2024-01-15T02:05:19.985Z,98.68
2024-01-15T02:07:46.733Z,98.50
2024-01-15T02:10:13.510Z,98.69
2024-01-15T02:12:40.517Z,98.05
2024-01-15T02:15:07.636Z,97.73
2024-01-15T02:17:34.397Z,97.40
2024-01-15T02:20:01.170Z,97.07
2024-01-15T02:22:27.922Z,97.06
2024-01-15T02:24:54.845Z,96.88
2024-01-15T02:27:21.924Z,96.49
2024-01-15T02:29:49.198Z,95.87
2024-01-15T02:32:15.904Z,95.78
2024-01-15T02:34:42.738Z,95.39
2024-01-15T02:37:09.533Z,95.69
2024-01-15T02:39:36.344Z,95.18
2024-01-15T02:42:03.085Z,95.13
2024-01-15T02:44:29.789Z,95.71
2024-01-15T02:46:56.529Z,95.81
2024-01-15T02:49:23.595Z,95.19
2024-01-15T02:51:50.580Z,95.19
2024-01-15T02:54:17.497Z,95.63
2024-01-15T02:56:44.253Z,95.14
2024-01-15T02:59:10.985Z,94.72
2024-01-15T03:01:37.783Z,94.69
2024-01-15T03:04:04.729Z,94.99
2024-01-15T03:06:31.602Z,94.58
2024-01-15T03:08:58.317Z,94.75
2024-01-15T03:11:25.012Z,94.34
2024-01-15T03:13:51.759Z,93.70
2024-01-15T03:16:20.904Z,93.79
2024-01-15T03:18:48.305Z,93.53
2024-01-15T03:21:15.126Z,93.44
2024-01-15T03:23:41.885Z,93.39
2024-01-15T03:26:08.590Z,93.39
2024-01-15T03:28:35.322Z,93.66
2024-01-15T03:31:02.144Z,93.57
2024-01-15T03:33:29.389Z,92.94
2024-01-15T03:35:56.240Z,93.05
2024-01-15T03:38:24.687Z,93.20
2024-01-15T03:40:51.477Z,92.84
2024-01-15T03:43:18.220Z,92.59
2024-01-15T03:45:45.020Z,93.03
2024-01-15T03:48:11.876Z,91.94
2024-01-15T03:50:38.621Z,91.84
2024-01-15T03:53:05.316Z,92.00
2024-01-15T03:55:32.034Z,91.38
2024-01-15T03:57:58.756Z,90.66
2024-01-15T04:00:25.814Z,91.02
2024-01-15T04:02:52.586Z,91.30
2024-01-15T04:05:19.301Z,91.43
2024-01-15T04:07:46.042Z,90.43
2024-01-15T04:10:12.767Z,90.46
2024-01-15T04:12:39.507Z,91.31
2024-01-15T04:15:06.510Z,90.92
2024-01-15T04:17:33.317Z,91.25
2024-01-15T04:20:00.102Z,91.15
2024-01-15T04:22:28.261Z,90.49
2024-01-15T04:24:55.021Z,89.97
2024-01-15T04:27:21.805Z,89.92
2024-01-15T04:29:48.653Z,90.12
2024-01-15T04:32:15.392Z,89.07
2024-01-15T04:34:42.281Z,89.31
2024-01-15T04:37:09.015Z,89.32
2024-01-15T04:39:35.777Z,89.50
2024-01-15T04:42:02.612Z,89.65
2024-01-15T04:44:29.793Z,89.04
2024-01-15T04:46:56.541Z,89.05
2024-01-15T04:49:23.493Z,88.29
2024-01-15T04:51:50.392Z,88.13
2024-01-15T04:54:20.018Z,87.76
2024-01-15T04:56:46.749Z,87.77
2024-01-15T04:59:14.666Z,87.97
2024-01-15T05:01:41.817Z,88.18
2024-01-15T05:04:08.663Z,88.40
2024-01-15T05:06:35.502Z,89.30
2024-01-15T05:09:02.237Z,90.42
2024-01-15T05:11:28.930Z,89.72
2024-01-15T05:13:55.630Z,90.13
2024-01-15T05:16:22.444Z,90.30
2024-01-15T05:18:49.380Z,90.00
2024-01-15T05:21:16.398Z,89.93
2024-01-15T05:23:43.166Z,89.32
2024-01-15T05:26:10.340Z,88.88
2024-01-15T05:28:37.160Z,88.92
2024-01-15T05:31:04.490Z,88.91
2024-01-15T05:33:31.346Z,88.61
2024-01-15T05:35:59.812Z,88.30
2024-01-15T05:38:26.520Z,88.29
2024-01-15T05:40:53.217Z,87.93
2024-01-15T05:43:19.921Z,88.58
2024-01-15T05:45:46.782Z,88.48
2024-01-15T05:48:14.082Z,88.15
2024-01-15T05:50:40.878Z,88.60
2024-01-15T05:53:07.610Z,89.01
2024-01-15T05:55:34.320Z,89.39
2024-01-15T05:58:01.184Z,89.69
2024-01-15T06:00:28.006Z,89.89
2024-01-15T06:02:54.744Z,89.79
2024-01-15T06:05:21.498Z,90.14
2024-01-15T06:07:49.135Z,90.38
2024-01-15T06:10:15.906Z,90.37
2024-01-15T06:12:46.964Z,89.98
2024-01-15T06:15:14.369Z,89.95
2024-01-15T06:17:41.287Z,89.61
2024-01-15T06:20:08.684Z,89.33
2024-01-15T06:22:35.400Z,89.75
2024-01-15T06:25:02.239Z,90.37
2024-01-15T06:27:29.068Z,90.84
2024-01-15T06:29:57.401Z,91.11
2024-01-15T06:32:24.237Z,91.40
2024-01-15T06:34:51.105Z,91.32
2024-01-15T06:37:20.179Z,91.54
2024-01-15T06:39:47.602Z,91.44
2024-01-15T06:42:14.411Z,91.36
2024-01-15T06:44:41.217Z,91.81
2024-01-15T06:47:07.937Z,91.95
2024-01-15T06:49:34.736Z,91.63
2024-01-15T06:52:02.097Z,92.18
2024-01-15T06:54:28.874Z,90.74
2024-01-15T06:56:55.616Z,90.86
2024-01-15T06:59:22.471Z,90.47
2024-01-15T07:01:49.718Z,90.52
2024-01-15T07:04:16.550Z,90.51
2024-01-15T07:06:43.303Z,90.24
2024-01-15T07:09:10.476Z,90.07
2024-01-15T07:11:37.221Z,90.23
2024-01-15T07:14:03.968Z,89.66
2024-01-15T07:16:37.235Z,88.90
2024-01-15T07:19:05.767Z,88.13
2024-01-15T07:21:32.871Z,88.90
2024-01-15T07:23:59.679Z,89.55
2024-01-15T07:26:26.740Z,89.17
2024-01-15T07:28:54.056Z,88.54
2024-01-15T07:31:20.922Z,88.69
2024-01-15T07:33:48.162Z,88.83
2024-01-15T07:36:16.215Z,88.46
2024-01-15T07:38:42.987Z,88.18
2024-01-15T07:41:09.723Z,88.19
2024-01-15T07:43:36.434Z,87.84
2024-01-15T07:46:04.043Z,88.04
2024-01-15T07:48:31.354Z,88.03
2024-01-15T07:50:58.220Z,88.12
2024-01-15T07:53:25.142Z,87.47
2024-01-15T07:55:51.843Z,87.95
2024-01-15T07:58:18.614Z,87.91
2024-01-15T08:00:45.998Z,88.00
2024-01-15T08:03:14.014Z,87.93
2024-01-15T08:05:41.091Z,87.94
2024-01-15T08:08:08.179Z,88.00
2024-01-15T08:10:34.961Z,87.59
2024-01-15T08:13:01.995Z,87.55
2024-01-15T08:15:31.439Z,87.16
2024-01-15T08:17:58.913Z,87.51
2024-01-15T08:20:26.993Z,88.03
2024-01-15T08:22:54.045Z,88.02
2024-01-15T08:25:20.768Z,87.46
2024-01-15T08:27:47.554Z,87.27
2024-01-15T08:30:14.806Z,86.91
2024-01-15T08:32:44.687Z,86.32
2024-01-15T08:35:12.391Z,85.18
2024-01-15T08:37:40.002Z,84.86
2024-01-15T08:40:07.051Z,84.90
2024-01-15T08:42:34.005Z,84.61
2024-01-15T08:45:00.922Z,84.69
2024-01-15T08:47:27.790Z,85.13
2024-01-15T08:49:54.674Z,84.96
2024-01-15T08:52:21.622Z,85.16
2024-01-15T08:54:48.567Z,85.44
2024-01-15T08:57:15.463Z,85.75
2024-01-15T08:59:42.703Z,86.11
2024-01-15T09:02:09.671Z,86.25
2024-01-15T09:04:36.508Z,87.13
2024-01-15T09:07:03.592Z,86.92
2024-01-15T09:09:30.459Z,87.05
2024-01-15T09:11:57.474Z,87.30
2024-01-15T09:14:33.381Z,87.62
2024-01-15T09:17:05.636Z,87.39
2024-01-15T09:19:32.664Z,87.24
2024-01-15T09:21:59.979Z,87.53
2024-01-15T09:24:28.244Z,87.25
2024-01-15T09:26:55.876Z,87.55
2024-01-15T09:29:25.207Z,86.51
2024-01-15T09:31:52.632Z,86.65
2024-01-15T09:34:19.996Z,86.99
2024-01-15T09:36:47.136Z,87.08
2024-01-15T09:39:14.056Z,87.37
2024-01-15T09:41:40.913Z,87.11
2024-01-15T09:44:09.099Z,87.37
2024-01-15T09:46:39.271Z,85.81
2024-01-15T09:49:06.816Z,86.61
2024-01-15T09:51:34.397Z,86.44
2024-01-15T09:54:01.280Z,86.30
2024-01-15T09:56:29.126Z,85.82
2024-01-15T09:58:56.196Z,85.81
2024-01-15T10:01:23.641Z,85.74
2024-01-15T10:03:51.574Z,86.11
2024-01-15T10:06:22.343Z,85.72
2024-01-15T10:08:51.746Z,85.67
2024-01-15T10:11:18.521Z,85.94
2024-01-15T10:13:46.594Z,86.09
2024-01-15T10:16:14.060Z,85.50
2024-01-15T10:18:41.264Z,85.68
2024-01-15T10:21:09.332Z,85.79
2024-01-15T10:23:37.399Z,84.88
2024-01-15T10:26:07.142Z,84.82
2024-01-15T10:28:33.880Z,84.34
2024-01-15T10:31:01.907Z,83.87
2024-01-15T10:33:29.073Z,85.14
2024-01-15T10:35:57.327Z,85.35
2024-01-15T10:38:25.003Z,85.34
2024-01-15T10:40:58.475Z,84.24
2024-01-15T10:43:28.917Z,83.88
2024-01-15T10:45:56.613Z,84.22
2024-01-15T10:48:24.750Z,84.57
2024-01-15T10:50:51.526Z,84.66
2024-01-15T10:53:18.729Z,84.45
2024-01-15T10:55:46.245Z,84.42
2024-01-15T10:58:13.901Z,84.72
2024-01-15T11:00:40.787Z,84.11
2024-01-15T11:03:08.009Z,83.55
2024-01-15T11:05:39.950Z,83.31
2024-01-15T11:08:10.228Z,83.41
2024-01-15T11:10:47.686Z,83.15
2024-01-15T11:13:40.708Z,82.90
2024-01-15T11:16:08.858Z,82.86
2024-01-15T11:18:41.619Z,83.58
2024-01-15T11:21:18.802Z,83.88
2024-01-15T11:24:00.105Z,83.48
2024-01-15T11:26:36.195Z,83.64
2024-01-15T11:29:11.264Z,84.25
2024-01-15T11:31:41.292Z,84.65
2024-01-15T11:34:09.605Z,85.40
2024-01-15T11:36:54.776Z,85.90
2024-01-15T11:39:33.892Z,86.67
2024-01-15T11:42:04.629Z,86.83
2024-01-15T11:44:31.907Z,86.93
2024-01-15T11:47:04.270Z,87.63
2024-01-15T11:49:50.950Z,86.94
2024-01-15T11:52:25.037Z,87.86
2024-01-15T11:55:13.652Z,87.60
2024-01-15T11:57:47.621Z,89.75
2024-01-15T12:00:15.614Z,89.73
2024-01-15T12:02:43.372Z,89.70
2024-01-15T12:05:13.640Z,89.41
2024-01-15T12:07:44.771Z,89.58
2024-01-15T12:10:19.940Z,89.42
2024-01-15T12:13:13.248Z,89.38
2024-01-15T12:15:43.516Z,89.82
2024-01-15T12:18:11.942Z,89.66
2024-01-15T12:20:39.184Z,89.64
2024-01-15T12:23:08.791Z,89.23
2024-01-15T12:25:36.107Z,88.94
2024-01-15T12:28:03.424Z,88.87
2024-01-15T12:30:33.223Z,88.37
2024-01-15T12:33:05.255Z,88.75
2024-01-15T12:35:32.338Z,89.84
2024-01-15T12:38:02.025Z,90.20
2024-01-15T12:40:28.826Z,89.83
2024-01-15T12:42:56.129Z,89.91
2024-01-15T12:45:23.026Z,90.61
2024-01-15T12:47:50.079Z,91.43
2024-01-15T12:50:20.044Z,92.00
2024-01-15T12:52:48.026Z,92.55
2024-01-15T12:55:15.216Z,92.97
2024-01-15T12:57:42.393Z,93.56
2024-01-15T13:00:14.714Z,93.50
2024-01-15T13:02:45.355Z,93.86
2024-01-15T13:05:14.127Z,94.01
2024-01-15T13:07:42.318Z,94.11
2024-01-15T13:10:10.676Z,94.11
2024-01-15T13:12:38.986Z,94.37
2024-01-15T13:15:06.214Z,94.32
2024-01-15T13:17:33.260Z,94.26
2024-01-15T13:20:00.672Z,94.59
2024-01-15T13:22:33.547Z,94.60
2024-01-15T13:25:01.349Z,93.71
2024-01-15T13:27:28.616Z,93.85
2024-01-15T13:29:55.783Z,94.37
2024-01-15T13:32:29.306Z,94.30
2024-01-15T13:34:57.883Z,93.96
2024-01-15T13:37:26.059Z,93.94
2024-01-15T13:39:54.342Z,93.06
2024-01-15T13:42:24.922Z,93.84
2024-01-15T13:44:52.617Z,93.75
2024-01-15T13:47:19.708Z,93.82
2024-01-15T13:49:47.474Z,93.76
2024-01-15T13:52:14.457Z,93.69
2024-01-15T13:54:49.102Z,93.41
2024-01-15T13:57:21.425Z,93.61
2024-01-15T13:59:50.759Z,93.39
2024-01-15T14:02:20.644Z,92.83
2024-01-15T14:04:49.481Z,92.80
2024-01-15T14:07:17.016Z,93.72
2024-01-15T14:09:43.956Z,93.59
2024-01-15T14:12:10.731Z,93.25
2024-01-15T14:14:37.461Z,93.33
2024-01-15T14:17:05.221Z,93.71
2024-01-15T14:19:32.166Z,93.55
2024-01-15T14:21:59.654Z,94.10
2024-01-15T14:24:26.474Z,94.32
2024-01-15T14:26:53.251Z,94.46
2024-01-15T14:29:22.005Z,94.64
2024-01-15T14:31:48.837Z,94.87
2024-01-15T14:34:15.716Z,95.36
2024-01-15T14:36:42.656Z,95.29
2024-01-15T14:39:10.924Z,95.24
2024-01-15T14:41:37.762Z,94.89
2024-01-15T14:44:04.809Z,94.80
2024-01-15T14:46:31.617Z,95.06
2024-01-15T14:48:58.548Z,95.29
2024-01-15T14:51:25.460Z,94.86
2024-01-15T14:53:52.716Z,94.53
2024-01-15T14:56:19.442Z,94.60
2024-01-15T14:58:46.159Z,94.99
2024-01-15T15:01:16.541Z,94.83
2024-01-15T15:03:43.627Z,94.41
2024-01-15T15:06:10.496Z,94.53
2024-01-15T15:08:37.993Z,94.56
2024-01-15T15:11:05.549Z,94.79
2024-01-15T15:13:38.544Z,95.33
2024-01-15T15:16:12.215Z,95.36
2024-01-15T15:18:39.453Z,94.85
2024-01-15T15:21:06.443Z,95.32
2024-01-15T15:23:33.251Z,94.53
2024-01-15T15:26:00.035Z,94.76
2024-01-15T15:28:26.819Z,94.55
2024-01-15T15:30:53.953Z,94.61
2024-01-15T15:33:20.893Z,94.91
2024-01-15T15:35:49.216Z,94.84
2024-01-15T15:38:15.983Z,95.23
2024-01-15T15:40:42.860Z,96.20
2024-01-15T15:43:09.887Z,96.86
2024-01-15T15:45:37.128Z,98.67
2024-01-15T15:48:04.400Z,99.97
2024-01-15T15:50:34.388Z,99.72
2024-01-15T15:53:02.812Z,100.00
2024-01-15T15:55:30.576Z,100.00
2024-01-15T15:57:57.944Z,100.00
2024-01-15T16:00:24.921Z,100.00
2024-01-15T16:02:51.732Z,100.00
2024-01-15T16:05:18.558Z,100.00
2024-01-15T16:07:45.303Z,100.00
2024-01-15T16:10:13.221Z,99.79
2024-01-15T16:12:40.876Z,99.79
2024-01-15T16:15:23.874Z,99.56
2024-01-15T16:23:17.445Z,99.74
2024-01-15T16:23:31.562Z,99.32
2024-01-15T16:24:04.059Z,98.94
2024-01-15T16:26:12.063Z,98.70
2024-01-15T16:28:39.145Z,98.83
2024-01-15T16:31:08.780Z,98.65
2024-01-15T16:33:37.343Z,98.69
2024-01-15T16:36:04.366Z,98.42
2024-01-15T16:38:31.216Z,98.44
2024-01-15T16:40:58.087Z,98.33
2024-01-15T16:43:24.947Z,97.41
2024-01-15T16:45:51.658Z,97.00
2024-01-15T16:48:18.545Z,97.69
2024-01-15T16:50:45.378Z,97.29
2024-01-15T16:53:12.217Z,97.02
2024-01-15T16:55:39.031Z,96.70
2024-01-15T16:58:05.780Z,96.49
2024-01-15T17:00:32.525Z,96.65
2024-01-15T17:02:59.514Z,96.49
2024-01-15T17:05:26.895Z,96.41
2024-01-15T17:07:53.704Z,96.17
2024-01-15T17:10:20.469Z,95.98
2024-01-15T17:12:48.740Z,95.79
2024-01-15T17:15:15.580Z,95.80
2024-01-15T17:17:42.727Z,96.23
2024-01-15T17:20:10.148Z,95.99
2024-01-15T17:22:37.832Z,95.98
2024-01-15T17:25:06.657Z,95.50
2024-01-15T17:27:33.427Z,95.59
2024-01-15T17:30:00.645Z,95.79
2024-01-15T17:32:27.508Z,95.76
2024-01-15T17:34:54.686Z,95.31
2024-01-15T17:37:21.453Z,95.34
2024-01-15T17:39:48.617Z,95.53
2024-01-15T17:42:15.344Z,94.97
2024-01-15T17:44:42.884Z,95.04
2024-01-15T17:47:09.677Z,95.60
2024-01-15T17:49:36.413Z,95.35
2024-01-15T17:52:03.858Z,95.20
2024-01-15T17:54:32.170Z,96.44
2024-01-15T17:56:59.087Z,96.39
2024-01-15T17:59:26.078Z,96.23
2024-01-15T18:01:53.267Z,96.57
2024-01-15T18:04:21.058Z,96.45
2024-01-15T18:06:51.074Z,96.44
2024-01-15T18:09:18.583Z,96.77
2024-01-15T18:11:45.683Z,96.90
2024-01-15T18:14:13.633Z,96.91
2024-01-15T18:16:40.596Z,97.25
2024-01-15T18:19:07.436Z,97.14
2024-01-15T18:21:34.715Z,97.36
2024-01-15T18:24:01.478Z,97.42
2024-01-15T18:26:29.355Z,97.46
2024-01-15T18:28:56.433Z,97.09
2024-01-15T18:31:23.217Z,96.89
2024-01-15T18:33:50.116Z,96.93
2024-01-15T18:36:16.968Z,96.08
2024-01-15T18:38:44.086Z,98.09
2024-01-15T18:41:20.709Z,97.58
2024-01-15T18:43:47.463Z,97.16
2024-01-15T18:46:14.156Z,96.65
2024-01-15T18:48:41.022Z,96.43
2024-01-15T18:51:07.811Z,96.01
2024-01-15T18:53:34.596Z,95.90
2024-01-15T18:56:05.070Z,96.03
2024-01-15T18:58:32.496Z,96.40
2024-01-15T19:01:00.197Z,95.83
2024-01-15T19:03:26.926Z,95.33
2024-01-15T19:05:53.690Z,96.04
2024-01-15T19:08:21.248Z,95.91
2024-01-15T19:10:48.015Z,95.67
2024-01-15T19:13:18.205Z,94.90
2024-01-15T19:15:45.992Z,95.03
2024-01-15T19:18:13.084Z,94.73
2024-01-15T19:20:40.024Z,94.90
2024-01-15T19:23:07.198Z,94.97
2024-01-15T19:25:33.903Z,94.95
2024-01-15T19:28:00.636Z,93.97
2024-01-15T19:30:27.424Z,94.69
2024-01-15T19:32:54.291Z,93.71
2024-01-15T19:35:21.234Z,92.93
2024-01-15T19:37:49.029Z,92.44
2024-01-15T19:40:16.473Z,92.17
2024-01-15T19:42:43.757Z,91.67
2024-01-15T19:45:10.448Z,91.14
2024-01-15T19:47:37.265Z,90.88
2024-01-15T19:50:04.249Z,90.63
2024-01-15T19:52:31.094Z,90.05
2024-01-15T19:54:57.804Z,88.77
2024-01-15T19:57:24.640Z,88.81
2024-01-15T19:59:54.797Z,88.18
2024-01-15T20:02:21.989Z,86.63
2024-01-15T20:04:48.775Z,87.32
2024-01-15T20:07:15.507Z,85.50
2024-01-15T20:09:42.524Z,85.08
2024-01-15T20:12:10.585Z,83.84
2024-01-15T20:14:37.581Z,83.57
2024-01-15T20:17:05.744Z,82.94
2024-01-15T20:19:32.772Z,82.40
2024-01-15T20:22:00.223Z,82.37
2024-01-15T20:24:27.520Z,82.11
2024-01-15T20:26:54.301Z,81.99
2024-01-15T20:29:21.109Z,81.66
2024-01-15T20:31:48.492Z,81.66
2024-01-15T20:34:15.337Z,81.86
2024-01-15T20:36:42.083Z,81.77
2024-01-15T20:39:10.674Z,81.95
2024-01-15T20:41:37.881Z,81.41
2024-01-15T20:44:04.991Z,81.87
2024-01-15T20:46:31.790Z,81.20
2024-01-15T20:48:58.565Z,81.72
2024-01-15T20:51:25.300Z,81.37
2024-01-15T20:53:52.081Z,80.99
2024-01-15T20:56:19.517Z,80.63
2024-01-15T20:58:46.255Z,81.08
2024-01-15T21:01:13.020Z,81.65
2024-01-15T21:03:39.981Z,82.23
2024-01-15T21:06:07.086Z,82.87
2024-01-15T21:08:35.516Z,83.11
2024-01-15T21:11:05.201Z,83.35
2024-01-15T21:13:32.261Z,83.50
2024-01-15T21:15:58.978Z,83.88
2024-01-15T21:18:25.814Z,84.30
2024-01-15T21:20:52.552Z,84.77
2024-01-15T21:23:19.307Z,84.88
2024-01-15T21:25:46.077Z,85.47
2024-01-15T21:28:12.831Z,85.98
2024-01-15T21:30:39.675Z,86.09
2024-01-15T21:33:06.717Z,86.29
2024-01-15T21:35:33.799Z,86.35
2024-01-15T21:38:00.949Z,86.16
2024-01-15T21:40:27.746Z,86.27
2024-01-15T21:42:55.597Z,85.74
2024-01-15T21:45:22.534Z,85.73
2024-01-15T21:47:49.430Z,86.20
2024-01-15T21:50:16.807Z,85.88
2024-01-15T21:52:43.546Z,85.60
2024-01-15T21:55:11.198Z,85.30
2024-01-15T21:57:37.980Z,85.63
2024-01-15T22:00:07.903Z,85.43
2024-01-15T22:02:41.625Z,85.43
2024-01-15T22:05:09.829Z,85.46
2024-01-15T22:07:39.197Z,85.51
2024-01-15T22:10:08.640Z,85.68
2024-01-15T22:12:35.448Z,85.94
2024-01-15T22:15:02.411Z,85.62
2024-01-15T22:17:30.222Z,85.32
2024-01-15T22:19:56.992Z,85.04
2024-01-15T22:22:23.796Z,84.90
2024-01-15T22:24:50.525Z,84.77
2024-01-15T22:27:18.035Z,84.62
2024-01-15T22:29:44.834Z,84.41
2024-01-15T22:32:11.689Z,84.22
2024-01-15T22:34:38.899Z,83.87
2024-01-15T22:37:06.077Z,83.83
2024-01-15T22:39:32.882Z,83.93
2024-01-15T22:42:00.458Z,83.96
2024-01-15T22:44:27.395Z,83.62
2024-01-15T22:46:54.324Z,83.31
2024-01-15T22:49:21.146Z,83.44
2024-01-15T22:51:48.193Z,83.73
2024-01-15T22:54:14.894Z,83.54
2024-01-15T22:56:41.731Z,83.77
2024-01-15T22:59:08.531Z,83.87
2024-01-15T23:01:35.388Z,84.50
2024-01-15T23:04:02.174Z,84.39
2024-01-15T23:06:28.887Z,84.61
2024-01-15T23:08:56.688Z,84.98
2024-01-15T23:11:24.677Z,84.63
2024-01-15T23:13:51.469Z,84.59
2024-01-15T23:16:18.596Z,84.76
2024-01-15T23:18:45.696Z,84.43
2024-01-15T23:21:12.660Z,84.08
2024-01-15T23:23:40.023Z,83.85
2024-01-15T23:26:07.144Z,83.57
2024-01-15T23:28:33.966Z,83.52
2024-01-15T23:31:02.115Z,83.67
2024-01-15T23:33:29.521Z,83.51
2024-01-15T23:35:57.443Z,83.61
2024-01-15T23:38:24.486Z,83.44
2024-01-15T23:40:51.884Z,83.68
2024-01-15T23:43:18.821Z,83.93
2024-01-15T23:45:47.823Z,84.08
2024-01-15T23:48:15.922Z,84.32
2024-01-15T23:50:42.931Z,84.72
2024-01-15T23:53:10.018Z,85.95
2024-01-15T23:55:36.779Z,87.33
2024-01-15T23:58:04.311Z,87.46
